UIBB 171800Z AUTO 28002MPS 9999 // NCD 13/05 Q1010 RMK QFE715/0953
QNH:(hPa/inHg/mmHg)1010 / 29.83 / 758
QFE:(hPa/inHg/mmHg)951 / 28.08 / 713
Temperature13
Dew Point5
Visibility> 10000
Weather
Cloud Cover
Transition Height900 m./4600 ft.
Transition LevelFL70
SQUAWK